createdAt,value
2019-01-28T00:00:12.839Z,5.98
2019-01-28T00:00:38.945Z,5.98
2019-01-28T00:01:05.054Z,5.99
2019-01-28T00:01:31.153Z,5.93
2019-01-28T00:01:57.262Z,5.97
2019-01-28T00:02:23.361Z,6.02
2019-01-28T00:02:49.464Z,5.99
2019-01-28T00:03:15.563Z,5.93
2019-01-28T00:03:41.674Z,5.9
2019-01-28T00:04:07.776Z,5.84
2019-01-28T00:04:33.880Z,5.98
2019-01-28T00:04:59.982Z,5.87
2019-01-28T00:05:26.094Z,6.02
2019-01-28T00:05:52.207Z,5.93
2019-01-28T00:06:18.364Z,5.93
2019-01-28T00:06:44.476Z,5.97
2019-01-28T00:07:10.573Z,5.94
2019-01-28T00:07:36.679Z,5.94
2019-01-28T00:08:02.815Z,6.02
2019-01-28T00:08:28.919Z,6.01
2019-01-28T00:08:55.023Z,6.07
2019-01-28T00:09:21.126Z,6.05
2019-01-28T00:09:47.234Z,6.01
2019-01-28T00:10:13.347Z,6.02
2019-01-28T00:10:39.453Z,5.99
2019-01-28T00:11:05.547Z,5.98
2019-01-28T00:11:31.648Z,6.05
2019-01-28T00:11:57.749Z,6.02
2019-01-28T00:12:24.483Z,6.01
2019-01-28T00:12:50.621Z,5.99
2019-01-28T00:13:16.749Z,5.99
2019-01-28T00:13:42.855Z,5.86
2019-01-28T00:14:08.961Z,5.94
2019-01-28T00:14:35.065Z,6.01
2019-01-28T00:15:01.173Z,5.97
2019-01-28T00:15:27.280Z,5.97
2019-01-28T00:15:53.383Z,5.87
2019-01-28T00:16:19.492Z,6.01
2019-01-28T00:16:45.601Z,5.97
2019-01-28T00:17:11.700Z,5.97
2019-01-28T00:17:37.811Z,5.94
2019-01-28T00:18:03.923Z,5.91
2019-01-28T00:18:30.021Z,5.9
2019-01-28T00:18:56.133Z,5.89
2019-01-28T00:19:22.235Z,5.98
2019-01-28T00:19:48.369Z,5.97
2019-01-28T00:20:14.480Z,5.99
2019-01-28T00:20:40.588Z,6.02
2019-01-28T00:21:06.748Z,6.02
2019-01-28T00:21:32.851Z,5.94
2019-01-28T00:21:58.955Z,6.04
2019-01-28T00:22:25.059Z,5.93
2019-01-28T00:22:51.166Z,5.99
2019-01-28T00:23:17.270Z,5.99
2019-01-28T00:23:43.365Z,6.01
2019-01-28T00:24:09.480Z,6.09
2019-01-28T00:24:35.581Z,6.09
2019-01-28T00:25:01.684Z,6.08
2019-01-28T00:25:27.790Z,6.08
2019-01-28T00:25:53.899Z,6.07
2019-01-28T00:26:20.030Z,6.11
2019-01-28T00:26:46.170Z,6.07
2019-01-28T00:27:12.311Z,6.07
2019-01-28T00:27:38.411Z,6.07
2019-01-28T00:28:04.516Z,6.07
2019-01-28T00:28:30.633Z,6.09
2019-01-28T00:28:57.416Z,6.04
2019-01-28T00:29:23.520Z,6.09
2019-01-28T00:29:49.625Z,6.08
2019-01-28T00:30:15.780Z,6.04
2019-01-28T00:30:41.883Z,6.07
2019-01-28T00:31:07.989Z,6.07
2019-01-28T00:31:34.094Z,6.12
2019-01-28T00:32:00.192Z,6.07
2019-01-28T00:32:26.300Z,6.17
2019-01-28T00:32:52.407Z,6.16
2019-01-28T00:33:18.568Z,6.11
2019-01-28T00:33:44.699Z,6.12
2019-01-28T00:34:10.834Z,6.16
2019-01-28T00:34:36.939Z,6.05
2019-01-28T00:35:03.070Z,6.12
2019-01-28T00:35:29.174Z,6.2
2019-01-28T00:35:55.284Z,6.19
2019-01-28T00:36:21.384Z,6.19
2019-01-28T00:36:47.496Z,6.07
2019-01-28T00:37:13.606Z,6.12
2019-01-28T00:37:39.704Z,6.08
2019-01-28T00:38:05.807Z,6.04
2019-01-28T00:38:31.938Z,6.07
2019-01-28T00:38:58.041Z,6.07
2019-01-28T00:39:24.147Z,6.05
2019-01-28T00:39:50.262Z,6.02
2019-01-28T00:40:16.364Z,6.01
2019-01-28T00:40:42.465Z,5.98
2019-01-28T00:41:08.572Z,5.99
2019-01-28T00:41:34.678Z,5.99
2019-01-28T00:42:00.785Z,6.04
2019-01-28T00:42:26.895Z,5.99
2019-01-28T00:42:52.996Z,5.91
2019-01-28T00:43:19.105Z,5.94
2019-01-28T00:43:45.232Z,5.94
2019-01-28T00:44:11.335Z,5.93
2019-01-28T00:44:37.438Z,5.94
2019-01-28T00:45:03.558Z,5.99
2019-01-28T00:45:29.712Z,5.93
2019-01-28T00:45:55.818Z,5.89
2019-01-28T00:46:21.948Z,5.91
2019-01-28T00:46:48.021Z,5.87
2019-01-28T00:47:14.132Z,5.94
2019-01-28T00:47:40.234Z,5.91
2019-01-28T00:48:06.342Z,6.07
2019-01-28T00:48:32.451Z,5.94
2019-01-28T00:48:58.584Z,5.98
2019-01-28T00:49:24.691Z,5.93
2019-01-28T00:49:50.793Z,5.99
2019-01-28T00:50:16.896Z,6.01
2019-01-28T00:50:43.008Z,5.97
2019-01-28T00:51:09.110Z,5.99
2019-01-28T00:51:35.236Z,5.94
2019-01-28T00:52:01.343Z,5.99
2019-01-28T00:52:27.504Z,5.99
2019-01-28T00:52:53.572Z,5.98
2019-01-28T00:53:19.676Z,6.04
2019-01-28T00:53:45.786Z,6.01
2019-01-28T00:54:11.887Z,6.04
2019-01-28T00:54:38.013Z,6.02
2019-01-28T00:55:04.119Z,5.89
2019-01-28T00:55:30.230Z,6.01
2019-01-28T00:55:56.373Z,5.98
2019-01-28T00:56:22.528Z,6.02
2019-01-28T00:56:48.638Z,6.05
2019-01-28T00:57:14.766Z,6.09
2019-01-28T00:57:40.876Z,6.01
2019-01-28T00:58:06.985Z,6.04
2019-01-28T00:58:33.113Z,5.98
2019-01-28T00:58:59.223Z,6.04
2019-01-28T00:59:25.320Z,6.05
2019-01-28T00:59:51.444Z,6.04
2019-01-28T01:00:17.550Z,6.05
2019-01-28T01:00:43.659Z,6.07
2019-01-28T01:01:09.767Z,6.02
2019-01-28T01:01:36.762Z,5.98
2019-01-28T01:02:02.864Z,5.97
2019-01-28T01:02:28.970Z,5.94
2019-01-28T01:02:55.076Z,6.01
2019-01-28T01:03:21.183Z,6.05
2019-01-28T01:03:47.306Z,6.04
2019-01-28T01:04:13.433Z,6.02
2019-01-28T01:04:39.577Z,5.97
2019-01-28T01:05:05.682Z,5.97
2019-01-28T01:05:31.808Z,5.87
2019-01-28T01:05:57.921Z,5.87
2019-01-28T01:06:24.031Z,5.9
2019-01-28T01:06:50.155Z,5.83
2019-01-28T01:07:16.261Z,5.84
2019-01-28T01:07:42.371Z,5.83
2019-01-28T01:08:08.472Z,5.84
2019-01-28T01:08:34.580Z,5.86
2019-01-28T01:09:00.681Z,5.83
2019-01-28T01:09:26.787Z,5.87
2019-01-28T01:09:52.891Z,5.82
2019-01-28T01:10:18.995Z,5.82
2019-01-28T01:10:45.093Z,5.69
2019-01-28T01:11:11.203Z,5.69
2019-01-28T01:11:37.310Z,5.71
2019-01-28T01:12:03.419Z,5.69
2019-01-28T01:12:29.554Z,5.69
2019-01-28T01:12:55.653Z,5.75
2019-01-28T01:13:21.765Z,5.71
2019-01-28T01:13:47.870Z,5.79
2019-01-28T01:14:14.004Z,5.8
2019-01-28T01:14:40.111Z,5.73
2019-01-28T01:15:06.226Z,5.73
2019-01-28T01:15:32.336Z,5.79
2019-01-28T01:15:58.437Z,5.65
2019-01-28T01:16:24.542Z,5.76
2019-01-28T01:16:50.647Z,5.69
2019-01-28T01:17:16.784Z,5.69
2019-01-28T01:17:42.890Z,5.71
2019-01-28T01:18:08.995Z,5.79
2019-01-28T01:18:35.103Z,5.68
2019-01-28T01:19:01.202Z,5.73
2019-01-28T01:19:27.334Z,5.75
2019-01-28T01:19:53.448Z,5.79
2019-01-28T01:20:19.547Z,5.89
2019-01-28T01:20:45.679Z,5.84
2019-01-28T01:21:11.786Z,5.86
2019-01-28T01:21:37.882Z,5.75
2019-01-28T01:22:03.988Z,5.76
2019-01-28T01:22:30.094Z,5.75
2019-01-28T01:22:56.203Z,5.8
2019-01-28T01:23:22.310Z,5.76
2019-01-28T01:23:48.415Z,5.87
2019-01-28T01:24:14.514Z,5.86
2019-01-28T01:24:40.618Z,5.83
2019-01-28T01:25:06.717Z,5.83
2019-01-28T01:25:32.860Z,5.82
2019-01-28T01:25:58.994Z,5.82
2019-01-28T01:26:25.101Z,5.79
2019-01-28T01:26:51.202Z,5.82
2019-01-28T01:27:17.308Z,5.79
2019-01-28T01:27:43.424Z,5.73
2019-01-28T01:28:09.521Z,5.75
2019-01-28T01:28:35.623Z,5.8
2019-01-28T01:29:01.732Z,5.83
2019-01-28T01:29:27.837Z,5.72
2019-01-28T01:29:53.940Z,5.75
2019-01-28T01:30:20.050Z,5.79
2019-01-28T01:30:46.156Z,5.82
2019-01-28T01:31:12.255Z,5.83
2019-01-28T01:31:38.365Z,5.8
2019-01-28T01:32:04.470Z,5.8
2019-01-28T01:32:30.572Z,5.86
2019-01-28T01:32:56.673Z,5.79
2019-01-28T01:33:22.782Z,5.9
2019-01-28T01:33:48.917Z,5.83
2019-01-28T01:34:15.022Z,5.89
2019-01-28T01:34:41.133Z,5.73
2019-01-28T01:35:07.261Z,5.79
2019-01-28T01:35:33.394Z,5.8
2019-01-28T01:35:59.532Z,5.76
2019-01-28T01:36:25.638Z,5.69
2019-01-28T01:36:51.734Z,5.68
2019-01-28T01:37:17.846Z,5.72
2019-01-28T01:37:43.972Z,5.68
2019-01-28T01:38:10.079Z,5.73
2019-01-28T01:38:36.180Z,5.8
2019-01-28T01:39:02.297Z,5.8
2019-01-28T01:39:28.395Z,5.73
2019-01-28T01:39:54.519Z,5.87
2019-01-28T01:40:20.655Z,5.8
2019-01-28T01:40:46.788Z,5.82
2019-01-28T01:41:12.886Z,5.82
2019-01-28T01:41:38.991Z,5.75
2019-01-28T01:42:05.098Z,5.75
2019-01-28T01:42:31.203Z,5.76
2019-01-28T01:42:57.299Z,5.82
2019-01-28T01:43:23.403Z,5.72
2019-01-28T01:43:49.506Z,5.68
2019-01-28T01:44:15.616Z,5.65
2019-01-28T01:44:41.752Z,5.75
2019-01-28T01:45:07.864Z,5.8
2019-01-28T01:45:33.985Z,5.73
2019-01-28T01:46:00.095Z,5.73
2019-01-28T01:46:26.198Z,5.66
2019-01-28T01:46:52.304Z,5.75
2019-01-28T01:47:18.411Z,5.69
2019-01-28T01:47:44.518Z,5.71
2019-01-28T01:48:10.619Z,5.72
2019-01-28T01:48:36.722Z,5.72
2019-01-28T01:49:02.829Z,5.64
2019-01-28T01:49:29.916Z,5.76
2019-01-28T01:49:56.029Z,5.66
2019-01-28T01:50:22.131Z,5.65
2019-01-28T01:50:48.237Z,5.71
2019-01-28T01:51:14.345Z,5.68
2019-01-28T01:51:40.448Z,5.68
2019-01-28T01:52:06.552Z,5.75
2019-01-28T01:52:32.660Z,5.69
2019-01-28T01:52:58.769Z,5.73
2019-01-28T01:53:24.872Z,5.73
2019-01-28T01:53:50.982Z,5.69
2019-01-28T01:54:17.108Z,5.71
2019-01-28T01:54:43.217Z,5.69
2019-01-28T01:55:09.316Z,5.75
2019-01-28T01:55:35.419Z,5.73
2019-01-28T01:56:01.552Z,5.66
2019-01-28T01:56:27.662Z,5.73
2019-01-28T01:56:53.786Z,5.8
2019-01-28T01:57:19.889Z,5.65
2019-01-28T01:57:45.994Z,5.72
2019-01-28T01:58:13.021Z,5.66
2019-01-28T01:58:38.260Z,5.69
2019-01-28T01:59:04.395Z,5.72
2019-01-28T01:59:30.533Z,5.66
2019-01-28T01:59:56.638Z,5.72
2019-01-28T02:00:22.776Z,5.69
2019-01-28T02:00:48.875Z,5.66
2019-01-28T02:01:15.012Z,5.72
2019-01-28T02:01:41.117Z,5.66
2019-01-28T02:02:07.217Z,5.73
2019-01-28T02:02:34.308Z,5.68
2019-01-28T02:03:00.414Z,5.72
2019-01-28T02:03:26.517Z,5.79
2019-01-28T02:03:52.625Z,5.68
2019-01-28T02:04:18.731Z,5.75
2019-01-28T02:04:44.833Z,5.75
2019-01-28T02:05:10.963Z,5.66
2019-01-28T02:05:37.067Z,5.69
2019-01-28T02:06:03.167Z,5.71
2019-01-28T02:06:29.280Z,5.62
2019-01-28T02:06:55.383Z,5.72
2019-01-28T02:07:21.546Z,5.68
2019-01-28T02:07:47.662Z,5.69
2019-01-28T02:08:13.755Z,5.73
2019-01-28T02:08:39.858Z,5.69
2019-01-28T02:09:05.968Z,5.62
2019-01-28T02:09:32.073Z,5.68
2019-01-28T02:09:58.206Z,5.73
2019-01-28T02:10:24.317Z,5.68
2019-01-28T02:10:50.408Z,5.68
2019-01-28T02:11:16.577Z,5.71
2019-01-28T02:11:42.677Z,5.68
2019-01-28T02:12:08.786Z,5.68
2019-01-28T02:12:34.941Z,5.66
2019-01-28T02:13:01.066Z,5.73
2019-01-28T02:13:27.202Z,5.73
2019-01-28T02:13:53.311Z,5.64
2019-01-28T02:14:19.415Z,5.66
2019-01-28T02:14:45.526Z,5.64
2019-01-28T02:15:11.624Z,5.71
2019-01-28T02:15:37.755Z,5.62
2019-01-28T02:16:03.861Z,5.64
2019-01-28T02:16:29.970Z,5.66
2019-01-28T02:16:56.102Z,5.61
2019-01-28T02:17:22.235Z,5.61
2019-01-28T02:17:48.370Z,5.56
2019-01-28T02:18:14.473Z,5.64
2019-01-28T02:18:40.582Z,5.62
2019-01-28T02:19:06.708Z,5.59
2019-01-28T02:19:32.818Z,5.57
2019-01-28T02:19:58.942Z,5.53
2019-01-28T02:20:25.048Z,5.53
2019-01-28T02:20:51.149Z,5.54
2019-01-28T02:21:17.288Z,5.59
2019-01-28T02:21:43.387Z,5.56
2019-01-28T02:22:09.491Z,5.62
2019-01-28T02:22:35.602Z,5.64
2019-01-28T02:23:01.729Z,5.61
2019-01-28T02:23:27.832Z,5.61
2019-01-28T02:23:53.939Z,5.65
2019-01-28T02:24:20.041Z,5.65
2019-01-28T02:24:46.149Z,5.71
2019-01-28T02:25:12.249Z,5.72
2019-01-28T02:25:38.351Z,5.62
2019-01-28T02:26:04.461Z,5.68
2019-01-28T02:26:30.569Z,5.71
2019-01-28T02:26:56.699Z,5.62
2019-01-28T02:27:22.802Z,5.64
2019-01-28T02:27:48.908Z,5.66
2019-01-28T02:28:15.007Z,5.66
2019-01-28T02:28:41.111Z,5.62
2019-01-28T02:29:07.215Z,5.66
2019-01-28T02:29:33.323Z,5.62
2019-01-28T02:29:59.426Z,5.68
2019-01-28T02:30:25.568Z,5.65
2019-01-28T02:30:51.732Z,5.68
2019-01-28T02:31:17.839Z,5.62
2019-01-28T02:31:43.949Z,5.64
2019-01-28T02:32:10.056Z,5.57
2019-01-28T02:32:36.156Z,5.62
2019-01-28T02:33:02.295Z,5.51
2019-01-28T02:33:28.398Z,5.57
2019-01-28T02:33:54.538Z,5.57
2019-01-28T02:34:20.673Z,5.48
2019-01-28T02:34:46.800Z,5.47
2019-01-28T02:35:12.912Z,5.47
2019-01-28T02:35:39.022Z,5.48
2019-01-28T02:36:05.143Z,5.57
2019-01-28T02:36:31.252Z,5.56
2019-01-28T02:36:57.382Z,5.56
2019-01-28T02:37:23.487Z,5.57
2019-01-28T02:37:49.628Z,5.54
2019-01-28T02:38:15.723Z,5.53
2019-01-28T02:38:41.829Z,5.53
2019-01-28T02:39:07.996Z,5.57
2019-01-28T02:39:34.062Z,5.57
2019-01-28T02:40:00.263Z,5.54
2019-01-28T02:40:26.442Z,5.51
2019-01-28T02:40:52.602Z,5.5
2019-01-28T02:41:18.758Z,5.5
2019-01-28T02:41:44.896Z,5.5
2019-01-28T02:42:11.000Z,5.38
2019-01-28T02:42:37.107Z,5.36
2019-01-28T02:43:03.217Z,5.39
2019-01-28T02:43:29.373Z,5.39
2019-01-28T02:43:55.477Z,5.39
2019-01-28T02:44:21.629Z,5.32
2019-01-28T02:44:47.722Z,5.33
2019-01-28T02:45:13.853Z,5.35
2019-01-28T02:45:39.986Z,5.28
2019-01-28T02:46:06.093Z,5.33
2019-01-28T02:46:32.283Z,5.25
2019-01-28T02:46:58.388Z,5.26
2019-01-28T02:47:24.523Z,5.25
2019-01-28T02:47:50.634Z,5.29
2019-01-28T02:48:16.772Z,5.32
2019-01-28T02:48:42.901Z,5.2
2019-01-28T02:49:09.011Z,5.23
2019-01-28T02:49:35.148Z,5.23
2019-01-28T02:50:01.255Z,5.3
2019-01-28T02:50:27.418Z,5.29
2019-01-28T02:50:53.533Z,5.26
2019-01-28T02:51:19.637Z,5.29
2019-01-28T02:51:45.798Z,5.2
2019-01-28T02:52:11.906Z,5.26
2019-01-28T02:52:38.036Z,5.3
2019-01-28T02:53:04.175Z,5.25
2019-01-28T02:53:30.301Z,5.29
2019-01-28T02:53:56.415Z,5.2
2019-01-28T02:54:22.508Z,5.28
2019-01-28T02:54:48.618Z,5.32
2019-01-28T02:55:14.712Z,5.18
2019-01-28T02:55:40.814Z,5.21
2019-01-28T02:56:06.922Z,5.18
2019-01-28T02:56:33.079Z,5.17
2019-01-28T02:56:59.184Z,5.11
2019-01-28T02:57:25.289Z,5.21
2019-01-28T02:57:51.418Z,5.2
2019-01-28T02:58:17.547Z,5.17
2019-01-28T02:58:43.650Z,5.17
2019-01-28T02:59:09.758Z,5.18
2019-01-28T02:59:35.915Z,5.15
2019-01-28T03:00:02.027Z,5.12
2019-01-28T03:00:28.205Z,5.05
2019-01-28T03:00:54.260Z,5.15
2019-01-28T03:01:20.389Z,5.2
2019-01-28T03:01:46.495Z,5.15
2019-01-28T03:02:12.598Z,5.14
2019-01-28T03:02:38.702Z,5.12
2019-01-28T03:03:04.839Z,5.05
2019-01-28T03:03:30.964Z,5.1
2019-01-28T03:03:57.104Z,5.12
2019-01-28T03:04:23.212Z,5.18
2019-01-28T03:04:49.306Z,5.08
2019-01-28T03:05:15.406Z,5.11
2019-01-28T03:05:41.518Z,5.08
2019-01-28T03:06:07.614Z,5.05
2019-01-28T03:06:33.756Z,5.15
2019-01-28T03:06:59.860Z,5.12
2019-01-28T03:07:25.972Z,5.07
2019-01-28T03:07:52.080Z,5
2019-01-28T03:08:18.181Z,5.07
2019-01-28T03:08:44.281Z,5.07
2019-01-28T03:09:10.505Z,4.96
2019-01-28T03:09:36.572Z,5.1
2019-01-28T03:10:02.681Z,5.12
2019-01-28T03:10:28.793Z,5.1
2019-01-28T03:10:54.890Z,5.2
2019-01-28T03:11:20.997Z,5.04
2019-01-28T03:11:47.129Z,5.12
2019-01-28T03:12:13.233Z,5.05
2019-01-28T03:12:39.367Z,5.15
2019-01-28T03:13:05.471Z,5.12
2019-01-28T03:13:31.573Z,5.12
2019-01-28T03:13:57.684Z,5.14
2019-01-28T03:14:23.811Z,5.05
2019-01-28T03:14:49.919Z,5.05
2019-01-28T03:15:16.015Z,5.07
2019-01-28T03:15:42.127Z,5.14
2019-01-28T03:16:08.230Z,5.11
2019-01-28T03:16:34.366Z,5.02
2019-01-28T03:17:00.463Z,5.11
2019-01-28T03:17:26.573Z,5.1
2019-01-28T03:17:52.680Z,5.18
2019-01-28T03:18:18.843Z,5.07
2019-01-28T03:18:44.948Z,5.12
2019-01-28T03:19:11.055Z,5.18
2019-01-28T03:19:37.158Z,5.12
2019-01-28T03:20:03.284Z,5.14
2019-01-28T03:20:29.393Z,5.05
2019-01-28T03:20:55.500Z,5.08
2019-01-28T03:21:21.603Z,5.15
2019-01-28T03:21:47.714Z,5.11
2019-01-28T03:22:13.822Z,5.12
2019-01-28T03:22:39.937Z,5.12
2019-01-28T03:23:06.027Z,5.12
2019-01-28T03:23:32.134Z,5.07
2019-01-28T03:23:58.233Z,5.14
2019-01-28T03:24:24.330Z,5.11
2019-01-28T03:24:50.442Z,5.12
2019-01-28T03:25:16.552Z,5.04
2019-01-28T03:25:42.714Z,5.05
2019-01-28T03:26:08.846Z,5.11
2019-01-28T03:26:34.954Z,5.02
2019-01-28T03:27:01.066Z,5.04
2019-01-28T03:27:27.196Z,5.08
2019-01-28T03:27:53.303Z,5.04
2019-01-28T03:28:19.410Z,4.97
2019-01-28T03:28:45.539Z,4.97
2019-01-28T03:29:11.647Z,4.99
2019-01-28T03:29:37.756Z,4.97
2019-01-28T03:30:03.858Z,5.05
2019-01-28T03:30:29.980Z,4.94
2019-01-28T03:30:56.170Z,5.02
2019-01-28T03:31:22.280Z,4.99
2019-01-28T03:31:48.470Z,5.1
2019-01-28T03:32:14.577Z,5.02
2019-01-28T03:32:40.709Z,5.11
2019-01-28T03:33:06.881Z,5.02
2019-01-28T03:33:33.042Z,5.02
2019-01-28T03:33:59.186Z,5.04
2019-01-28T03:34:25.309Z,5.02
2019-01-28T03:34:51.450Z,5.11
2019-01-28T03:35:17.578Z,5.04
2019-01-28T03:35:43.684Z,5.04
2019-01-28T03:36:09.793Z,5.04
2019-01-28T03:36:35.954Z,5.08
2019-01-28T03:37:02.052Z,5.11
2019-01-28T03:37:28.164Z,5.14
2019-01-28T03:37:54.296Z,5.12
2019-01-28T03:38:20.431Z,5.15
2019-01-28T03:38:46.555Z,5.04
2019-01-28T03:39:12.659Z,5.07
2019-01-28T03:39:38.755Z,5
2019-01-28T03:40:04.863Z,5.02
2019-01-28T03:40:31.031Z,5.02
2019-01-28T03:40:57.169Z,5.04
2019-01-28T03:41:23.274Z,5.11
2019-01-28T03:41:49.426Z,5.08
2019-01-28T03:42:15.594Z,5
2019-01-28T03:42:41.727Z,5.02
2019-01-28T03:43:07.862Z,4.89
2019-01-28T03:43:33.994Z,4.96
2019-01-28T03:44:00.098Z,4.96
2019-01-28T03:44:26.266Z,4.87
2019-01-28T03:44:52.363Z,4.96
2019-01-28T03:45:18.476Z,4.93
2019-01-28T03:45:44.605Z,4.9
2019-01-28T03:46:10.703Z,5.04
2019-01-28T03:46:36.807Z,4.87
2019-01-28T03:47:02.942Z,4.96
2019-01-28T03:47:29.044Z,4.9
2019-01-28T03:47:55.187Z,4.9
2019-01-28T03:48:21.284Z,4.96
2019-01-28T03:48:47.450Z,4.94
2019-01-28T03:49:13.546Z,4.89
2019-01-28T03:49:39.662Z,4.96
2019-01-28T03:50:05.794Z,4.9
2019-01-28T03:50:31.951Z,4.84
2019-01-28T03:50:58.080Z,4.78
2019-01-28T03:51:24.217Z,4.89
2019-01-28T03:51:50.353Z,4.87
2019-01-28T03:52:16.486Z,4.89
2019-01-28T03:52:42.592Z,4.92
2019-01-28T03:53:08.700Z,4.86
2019-01-28T03:53:34.855Z,4.84
2019-01-28T03:54:00.965Z,4.75
2019-01-28T03:54:27.095Z,4.8
2019-01-28T03:54:53.280Z,4.82
2019-01-28T03:55:19.391Z,4.82
2019-01-28T03:55:45.491Z,4.9
2019-01-28T03:56:11.631Z,4.84
2019-01-28T03:56:37.765Z,4.74
2019-01-28T03:57:03.906Z,4.84
2019-01-28T03:57:30.045Z,4.92
2019-01-28T03:57:56.151Z,4.86
2019-01-28T03:58:22.258Z,4.86
2019-01-28T03:58:48.361Z,4.89
2019-01-28T03:59:14.465Z,4.93
2019-01-28T03:59:40.572Z,4.93
2019-01-28T04:00:06.673Z,4.96
2019-01-28T04:00:32.810Z,4.87
2019-01-28T04:00:58.949Z,4.8
2019-01-28T04:01:26.519Z,4.87
2019-01-28T04:01:52.167Z,4.93
2019-01-28T04:02:18.330Z,4.92
2019-01-28T04:02:44.475Z,4.93
2019-01-28T04:03:10.585Z,4.92
2019-01-28T04:03:36.711Z,4.93
2019-01-28T04:04:02.817Z,4.94
2019-01-28T04:04:28.949Z,4.92
2019-01-28T04:04:55.105Z,4.9
2019-01-28T04:05:21.230Z,4.92
2019-01-28T04:05:47.341Z,4.94
2019-01-28T04:06:13.454Z,4.92
2019-01-28T04:06:39.554Z,4.87
2019-01-28T04:07:05.659Z,4.86
2019-01-28T04:07:31.795Z,4.96
2019-01-28T04:07:57.902Z,4.92
2019-01-28T04:08:24.040Z,4.93
2019-01-28T04:08:50.150Z,4.86
2019-01-28T04:09:16.250Z,4.78
2019-01-28T04:09:42.355Z,4.89
2019-01-28T04:10:08.454Z,4.86
2019-01-28T04:10:34.598Z,4.86
2019-01-28T04:11:00.720Z,4.87
2019-01-28T04:11:26.828Z,4.92
2019-01-28T04:11:52.925Z,4.94
2019-01-28T04:12:19.038Z,4.93
2019-01-28T04:12:45.144Z,4.92
2019-01-28T04:13:11.247Z,4.9
2019-01-28T04:13:37.349Z,4.93
2019-01-28T04:14:03.459Z,4.94
2019-01-28T04:14:29.614Z,4.87
2019-01-28T04:14:55.746Z,4.93
2019-01-28T04:15:21.902Z,5.02
2019-01-28T04:15:48.342Z,4.93
2019-01-28T04:16:14.449Z,4.87
2019-01-28T04:16:40.558Z,4.93
2019-01-28T04:17:06.691Z,4.94
2019-01-28T04:17:32.819Z,4.9
2019-01-28T04:17:58.960Z,4.94
2019-01-28T04:18:25.094Z,4.94
2019-01-28T04:18:51.223Z,4.89
2019-01-28T04:19:17.321Z,4.93
2019-01-28T04:19:43.433Z,4.93
2019-01-28T04:20:09.542Z,4.96
2019-01-28T04:20:35.665Z,4.89
2019-01-28T04:21:01.779Z,4.78
2019-01-28T04:21:27.908Z,4.78
2019-01-28T04:21:54.018Z,4.77
2019-01-28T04:22:20.117Z,4.78
2019-01-28T04:22:46.238Z,4.86
2019-01-28T04:23:12.338Z,4.78
2019-01-28T04:23:38.476Z,4.78
2019-01-28T04:24:04.575Z,4.78
2019-01-28T04:24:30.689Z,4.8
2019-01-28T04:24:56.787Z,4.78
2019-01-28T04:25:23.913Z,4.82
2019-01-28T04:25:49.980Z,4.84
2019-01-28T04:26:16.109Z,4.84
2019-01-28T04:26:42.222Z,4.84
2019-01-28T04:27:08.323Z,4.8
2019-01-28T04:27:34.437Z,4.8
2019-01-28T04:28:00.538Z,4.87
2019-01-28T04:28:26.667Z,4.77
2019-01-28T04:28:52.774Z,4.75
2019-01-28T04:29:18.903Z,4.78
2019-01-28T04:29:45.014Z,4.75
2019-01-28T04:30:11.116Z,4.8
2019-01-28T04:30:37.262Z,4.74
2019-01-28T04:31:03.391Z,4.68
2019-01-28T04:31:29.490Z,4.7
2019-01-28T04:31:55.627Z,4.67
2019-01-28T04:32:21.756Z,4.67
2019-01-28T04:32:47.867Z,4.63
2019-01-28T04:33:14.027Z,4.68
2019-01-28T04:33:40.153Z,4.71
2019-01-28T04:34:06.257Z,4.7
2019-01-28T04:34:32.388Z,4.7
2019-01-28T04:34:58.492Z,4.66
2019-01-28T04:35:24.634Z,4.66
2019-01-28T04:35:50.705Z,4.7
2019-01-28T04:36:16.836Z,4.68
2019-01-28T04:36:42.965Z,4.66
2019-01-28T04:37:09.071Z,4.59
2019-01-28T04:37:35.178Z,4.73
2019-01-28T04:38:01.276Z,4.73
2019-01-28T04:38:27.415Z,4.66
2019-01-28T04:38:53.546Z,4.74
2019-01-28T04:39:19.651Z,4.68
2019-01-28T04:39:45.779Z,4.73
2019-01-28T04:40:11.914Z,4.82
2019-01-28T04:40:38.046Z,4.71
2019-01-28T04:41:04.177Z,4.74
2019-01-28T04:41:30.279Z,4.8
2019-01-28T04:41:56.378Z,4.78
2019-01-28T04:42:22.487Z,4.75
2019-01-28T04:42:48.597Z,4.67
2019-01-28T04:43:14.764Z,4.74
2019-01-28T04:43:40.870Z,4.77
2019-01-28T04:44:06.970Z,4.75
2019-01-28T04:44:33.813Z,4.82
2019-01-28T04:44:59.914Z,4.82
2019-01-28T04:45:26.045Z,4.74
2019-01-28T04:45:52.151Z,4.77
2019-01-28T04:46:18.252Z,4.7
2019-01-28T04:46:44.390Z,4.73
2019-01-28T04:47:10.495Z,4.7
2019-01-28T04:47:36.627Z,4.68
2019-01-28T04:48:02.762Z,4.75
2019-01-28T04:48:28.927Z,4.74
2019-01-28T04:48:55.020Z,4.74
2019-01-28T04:49:21.194Z,4.68
2019-01-28T04:49:47.363Z,4.67
2019-01-28T04:50:13.493Z,4.73
2019-01-28T04:50:39.598Z,4.67
2019-01-28T04:51:05.702Z,4.67
2019-01-28T04:51:31.802Z,4.73
2019-01-28T04:51:57.908Z,4.67
2019-01-28T04:52:24.015Z,4.7
2019-01-28T04:52:50.119Z,4.67
2019-01-28T04:53:16.254Z,4.66
2019-01-28T04:53:42.353Z,4.7
2019-01-28T04:54:08.457Z,4.68
2019-01-28T04:54:34.590Z,4.67
2019-01-28T04:55:00.788Z,4.67
2019-01-28T04:55:26.858Z,4.7
2019-01-28T04:55:53.022Z,4.78
2019-01-28T04:56:19.159Z,4.8
2019-01-28T04:56:45.325Z,4.75
2019-01-28T04:57:11.455Z,4.75
2019-01-28T04:57:37.560Z,4.84
2019-01-28T04:58:03.669Z,4.78
2019-01-28T04:58:29.764Z,4.8
2019-01-28T04:58:55.935Z,4.84
2019-01-28T04:59:22.038Z,4.86
2019-01-28T04:59:48.145Z,4.75
2019-01-28T05:00:14.265Z,4.74
2019-01-28T05:00:40.388Z,4.77
2019-01-28T05:01:06.487Z,4.78
2019-01-28T05:01:32.590Z,4.74
2019-01-28T05:01:58.696Z,4.77
2019-01-28T05:02:24.825Z,4.78
2019-01-28T05:02:50.927Z,4.82
2019-01-28T05:03:17.036Z,4.82
2019-01-28T05:03:43.172Z,4.75
2019-01-28T05:04:09.271Z,4.75
2019-01-28T05:04:35.423Z,4.75
2019-01-28T05:05:01.530Z,4.71
2019-01-28T05:05:27.633Z,4.77
2019-01-28T05:05:53.735Z,4.74
2019-01-28T05:06:19.963Z,4.75
2019-01-28T05:06:46.066Z,4.74
2019-01-28T05:07:12.173Z,4.7
2019-01-28T05:07:38.307Z,4.74
2019-01-28T05:08:04.478Z,4.77
2019-01-28T05:08:30.578Z,4.71
2019-01-28T05:08:56.688Z,4.7
2019-01-28T05:09:22.817Z,4.67
2019-01-28T05:09:48.919Z,4.73
2019-01-28T05:10:15.031Z,4.77
2019-01-28T05:10:41.163Z,4.78
2019-01-28T05:11:07.290Z,4.74
2019-01-28T05:11:33.403Z,4.84
2019-01-28T05:11:59.513Z,4.75
2019-01-28T05:12:25.619Z,4.75
2019-01-28T05:12:51.721Z,4.84
2019-01-28T05:13:17.854Z,4.8
2019-01-28T05:13:43.960Z,4.75
2019-01-28T05:14:10.057Z,4.74
2019-01-28T05:14:36.168Z,4.74
2019-01-28T05:15:02.266Z,4.8
2019-01-28T05:15:28.373Z,4.77
2019-01-28T05:15:54.473Z,4.8
2019-01-28T05:16:20.585Z,4.78
2019-01-28T05:16:46.691Z,4.74
2019-01-28T05:17:12.796Z,4.82
2019-01-28T05:17:38.903Z,4.78
2019-01-28T05:18:05.004Z,4.78
2019-01-28T05:18:31.107Z,4.74
2019-01-28T05:18:57.212Z,4.77
2019-01-28T05:19:23.316Z,4.71
2019-01-28T05:19:49.445Z,4.67
2019-01-28T05:20:15.566Z,4.74
2019-01-28T05:20:41.677Z,4.78
2019-01-28T05:21:07.832Z,4.8
2019-01-28T05:21:33.945Z,4.75
2019-01-28T05:22:00.054Z,4.78
2019-01-28T05:22:26.188Z,4.89
2019-01-28T05:22:52.323Z,4.8
2019-01-28T05:23:18.422Z,4.8
2019-01-28T05:23:44.523Z,4.9
2019-01-28T05:24:10.664Z,4.93
2019-01-28T05:24:36.765Z,4.89
2019-01-28T05:25:02.873Z,4.84
2019-01-28T05:25:29.004Z,4.89
2019-01-28T05:25:55.120Z,4.8
2019-01-28T05:26:21.250Z,4.82
2019-01-28T05:26:47.351Z,4.77
2019-01-28T05:27:13.461Z,4.82
2019-01-28T05:27:39.620Z,4.78
2019-01-28T05:28:05.733Z,4.77
2019-01-28T05:28:31.833Z,4.92
2019-01-28T05:28:57.941Z,4.74
2019-01-28T05:29:24.076Z,4.78
2019-01-28T05:29:50.179Z,4.82
2019-01-28T05:30:16.283Z,4.77
2019-01-28T05:30:42.379Z,4.9
2019-01-28T05:31:08.485Z,4.82
2019-01-28T05:31:34.591Z,4.8
2019-01-28T05:32:00.695Z,4.84
2019-01-28T05:32:26.833Z,4.77
2019-01-28T05:32:52.938Z,4.84
2019-01-28T05:33:19.096Z,4.75
2019-01-28T05:33:45.264Z,4.78
2019-01-28T05:34:11.388Z,4.9
2019-01-28T05:34:37.487Z,4.8
2019-01-28T05:35:03.592Z,4.77
2019-01-28T05:35:29.692Z,4.78
2019-01-28T05:35:55.858Z,4.82
2019-01-28T05:36:21.958Z,4.82
2019-01-28T05:36:48.061Z,4.8
2019-01-28T05:37:14.174Z,4.82
2019-01-28T05:37:40.306Z,4.8
2019-01-28T05:38:06.429Z,4.86
2019-01-28T05:38:32.531Z,4.74
2019-01-28T05:38:58.636Z,4.8
2019-01-28T05:39:24.747Z,4.75
2019-01-28T05:39:51.124Z,4.8
2019-01-28T05:40:17.238Z,4.82
2019-01-28T05:40:43.367Z,4.82
2019-01-28T05:41:09.472Z,4.78
2019-01-28T05:41:35.577Z,4.8
2019-01-28T05:42:01.717Z,4.84
2019-01-28T05:42:27.828Z,4.78
2019-01-28T05:42:53.966Z,4.84
2019-01-28T05:43:20.065Z,4.78
2019-01-28T05:43:46.173Z,4.75
2019-01-28T05:44:12.320Z,4.75
2019-01-28T05:44:38.450Z,4.8
2019-01-28T05:45:05.551Z,4.82
2019-01-28T05:45:31.688Z,4.9
2019-01-28T05:45:57.817Z,4.78
2019-01-28T05:46:23.926Z,4.8
2019-01-28T05:46:50.034Z,4.82
2019-01-28T05:47:16.135Z,4.9
2019-01-28T05:47:42.233Z,4.86
2019-01-28T05:48:08.368Z,4.74
2019-01-28T05:48:34.475Z,4.87
2019-01-28T05:49:00.592Z,4.92